createdAt,value
2022-08-14T00:02:02.941Z,3.05
2022-08-14T00:04:42.469Z,5.40
2022-08-14T00:07:14.035Z,2.50
2022-08-14T00:09:55.714Z,2.42
2022-08-14T00:12:33.630Z,2.60
2022-08-14T00:15:09.251Z,2.97
2022-08-14T00:17:38.140Z,2.65
2022-08-14T00:20:15.196Z,3.40
2022-08-14T00:22:57.596Z,2.95
2022-08-14T00:25:41.662Z,2.70
2022-08-14T00:28:15.552Z,3.05
2022-08-14T00:30:46.888Z,2.58
2022-08-14T00:33:15.404Z,2.87
2022-08-14T00:36:36.866Z,5.50
2022-08-14T00:38:29.787Z,3.53
2022-08-14T00:40:58.546Z,2.78
2022-08-14T00:43:25.003Z,3.30
2022-08-14T00:46:02.363Z,3.40
2022-08-14T00:48:34.676Z,2.97
2022-08-14T00:51:10.482Z,3.10
2022-08-14T00:53:38.560Z,4.25
2022-08-14T00:56:07.119Z,3.00
2022-08-14T00:58:36.225Z,4.20
2022-08-14T01:01:11.699Z,3.72
2022-08-14T01:03:42.327Z,2.63
2022-08-14T01:06:11.162Z,2.60
2022-08-14T01:08:58.275Z,2.80
2022-08-14T01:11:35.607Z,3.07
2022-08-14T01:14:04.807Z,3.22
2022-08-14T01:16:53.167Z,2.92
2022-08-14T01:19:41.436Z,2.88
2022-08-14T01:22:08.735Z,3.25
2022-08-14T01:24:41.254Z,3.50
2022-08-14T01:27:07.614Z,3.15
2022-08-14T01:29:58.538Z,2.95
2022-08-14T01:32:24.309Z,3.70
2022-08-14T01:35:21.072Z,3.60
2022-08-14T01:37:54.664Z,2.93
2022-08-14T01:40:33.270Z,3.20
2022-08-14T01:43:18.856Z,3.10
2022-08-14T01:45:57.676Z,3.95
2022-08-14T01:48:37.154Z,3.08
2022-08-14T01:51:18.764Z,3.50
2022-08-14T01:53:54.815Z,3.28
2022-08-14T01:56:30.699Z,3.75
2022-08-14T01:59:10.131Z,3.50
2022-08-14T02:01:57.986Z,3.60
2022-08-14T02:04:55.223Z,3.27
2022-08-14T02:07:17.397Z,3.88
2022-08-14T02:10:02.673Z,3.15
2022-08-14T02:12:32.912Z,3.40
2022-08-14T02:15:01.597Z,3.53
2022-08-14T02:17:30.891Z,3.60
2022-08-14T02:19:58.686Z,3.67
2022-08-14T02:22:37.498Z,3.38
2022-08-14T02:25:12.476Z,3.70
2022-08-14T02:28:24.615Z,3.60
2022-08-14T02:30:29.670Z,3.63
2022-08-14T02:32:57.887Z,3.83
2022-08-14T02:35:32.570Z,3.50
2022-08-14T02:37:59.908Z,3.53
2022-08-14T02:40:32.425Z,5.38
2022-08-14T02:43:00.843Z,3.57
2022-08-14T02:45:38.641Z,3.38
2022-08-14T02:49:02.562Z,3.53
2022-08-14T02:51:00.734Z,4.07
2022-08-14T02:53:29.335Z,3.92
2022-08-14T02:55:56.502Z,3.80
2022-08-14T02:58:31.133Z,3.83
2022-08-14T03:00:58.990Z,4.18
2022-08-14T03:03:26.031Z,4.32
2022-08-14T03:05:54.252Z,3.72
2022-08-14T03:08:22.060Z,4.33
2022-08-14T03:10:50.263Z,4.13
2022-08-14T03:13:20.855Z,3.90
2022-08-14T03:15:55.263Z,3.95
2022-08-14T03:18:30.728Z,4.47
2022-08-14T03:21:07.695Z,3.97
2022-08-14T03:23:36.369Z,4.20
2022-08-14T03:26:07.071Z,3.88
2022-08-14T03:28:34.284Z,4.25
2022-08-14T03:31:03.787Z,4.28
2022-08-14T03:33:37.983Z,4.10
2022-08-14T03:37:50.921Z,4.07
2022-08-14T03:39:14.408Z,4.65
2022-08-14T03:41:48.004Z,4.28
2022-08-14T03:45:19.935Z,4.32
2022-08-14T03:47:03.179Z,4.13
2022-08-14T03:49:30.206Z,4.40
2022-08-14T03:52:00.565Z,3.97
2022-08-14T03:54:27.470Z,3.95
2022-08-14T03:56:54.493Z,4.47
2022-08-14T03:59:20.959Z,4.53
2022-08-14T04:02:01.220Z,4.80
2022-08-14T04:04:33.431Z,4.30
2022-08-14T04:07:00.688Z,4.35
2022-08-14T04:09:27.805Z,4.20
2022-08-14T04:11:56.244Z,4.57
2022-08-14T04:14:24.591Z,3.90
2022-08-14T04:16:50.933Z,4.10
2022-08-14T04:19:19.242Z,4.13
2022-08-14T04:22:03.700Z,4.75
2022-08-14T04:24:31.831Z,4.37
2022-08-14T04:27:10.462Z,4.63
2022-08-14T04:29:42.520Z,4.60
2022-08-14T04:33:00.015Z,4.38
2022-08-14T04:34:58.989Z,4.55
2022-08-14T04:37:45.302Z,4.30
2022-08-14T04:40:31.185Z,4.85
2022-08-14T04:43:17.295Z,4.45
2022-08-14T04:45:44.971Z,4.45
2022-08-14T04:48:13.998Z,4.63
2022-08-14T04:51:01.458Z,4.33
2022-08-14T04:53:34.673Z,4.78
2022-08-14T04:56:05.831Z,4.45
2022-08-14T04:58:34.328Z,4.57
2022-08-14T05:01:04.050Z,4.45
2022-08-14T05:03:31.980Z,4.33
2022-08-14T05:06:00.515Z,3.92
2022-08-14T05:08:50.543Z,4.32
2022-08-14T05:11:15.064Z,4.18
2022-08-14T05:16:31.557Z,4.70
2022-08-14T05:19:18.400Z,4.40
2022-08-14T05:21:59.880Z,5.50
2022-08-14T05:24:28.801Z,4.90
2022-08-14T05:26:55.780Z,4.63
2022-08-14T05:29:23.072Z,4.63
2022-08-14T05:31:49.547Z,4.30
2022-08-14T05:34:23.640Z,4.93
2022-08-14T05:36:58.857Z,6.07
2022-08-14T05:39:29.748Z,6.20
2022-08-14T05:41:56.699Z,7.40
2022-08-14T05:44:27.863Z,7.50
2022-08-14T05:46:56.748Z,8.50
2022-08-14T05:49:23.161Z,7.43
2022-08-14T05:51:59.486Z,8.07
2022-08-14T05:54:28.066Z,7.70
2022-08-14T05:57:02.531Z,9.85
2022-08-14T05:59:36.770Z,15.68
2022-08-14T06:02:07.522Z,8.48
2022-08-14T06:04:36.733Z,8.95
2022-08-14T06:07:03.251Z,7.60
2022-08-14T06:09:35.520Z,8.63
2022-08-14T06:12:10.548Z,8.65
2022-08-14T06:14:38.716Z,9.13
2022-08-14T06:17:05.523Z,7.60
2022-08-14T06:19:31.876Z,9.47
2022-08-14T06:21:59.462Z,8.55
2022-08-14T06:24:27.472Z,9.00
2022-08-14T06:27:04.382Z,9.50
2022-08-14T06:29:34.671Z,8.02
2022-08-14T06:32:38.333Z,8.47
2022-08-14T06:35:03.523Z,8.60
2022-08-14T06:37:48.835Z,8.80
2022-08-14T06:40:27.600Z,8.20
2022-08-14T06:43:07.205Z,9.65
2022-08-14T06:45:36.045Z,8.90
2022-08-14T06:48:06.287Z,9.02
2022-08-14T06:50:39.599Z,10.60
2022-08-14T06:53:06.332Z,11.40
2022-08-14T06:55:32.723Z,10.38
2022-08-14T06:57:59.091Z,8.50
2022-08-14T07:00:30.809Z,9.23
2022-08-14T07:03:17.049Z,9.07
2022-08-14T07:05:54.982Z,9.80
2022-08-14T07:08:29.713Z,9.25
2022-08-14T07:11:00.018Z,10.80
2022-08-14T07:13:27.526Z,10.93
2022-08-14T07:15:55.712Z,9.25
2022-08-14T07:18:32.809Z,9.30
2022-08-14T07:21:00.932Z,8.38
2022-08-14T07:23:27.675Z,8.57
2022-08-14T07:25:59.366Z,8.98
2022-08-14T07:28:34.763Z,9.85
2022-08-14T07:31:05.753Z,9.23
2022-08-14T07:33:37.683Z,8.35
2022-08-14T07:36:27.415Z,12.73
2022-08-14T07:38:57.104Z,7.93
2022-08-14T07:41:23.487Z,7.20
2022-08-14T07:43:55.811Z,10.50
2022-08-14T07:46:29.248Z,8.13
2022-08-14T07:48:56.776Z,9.33
2022-08-14T07:51:23.314Z,8.07
2022-08-14T07:53:50.244Z,7.00
2022-08-14T07:56:47.695Z,7.60
2022-08-14T07:59:10.546Z,11.15
2022-08-14T08:01:48.483Z,6.37
2022-08-14T08:04:25.029Z,16.15
2022-08-14T08:06:53.987Z,6.70
2022-08-14T08:09:25.099Z,9.45
2022-08-14T08:12:00.451Z,6.40
2022-08-14T08:14:28.426Z,9.13
2022-08-14T08:16:56.316Z,6.70
2022-08-14T08:19:23.291Z,7.07
2022-08-14T08:21:50.767Z,6.93
2022-08-14T08:24:20.921Z,13.02
2022-08-14T08:26:50.692Z,7.63
2022-08-14T08:29:28.649Z,6.85
2022-08-14T08:31:56.562Z,9.15
2022-08-14T08:34:29.389Z,11.00
2022-08-14T08:36:58.050Z,6.07
2022-08-14T08:39:24.444Z,6.87
2022-08-14T08:41:57.203Z,6.38
2022-08-14T08:44:32.793Z,6.22
2022-08-14T08:47:05.245Z,7.68
2022-08-14T08:49:48.464Z,6.30
2022-08-14T08:52:31.021Z,11.73
2022-08-14T08:54:59.074Z,8.13
2022-08-14T08:57:27.303Z,6.55
2022-08-14T08:59:55.291Z,6.82
2022-08-14T09:02:26.067Z,7.65
2022-08-14T09:05:03.613Z,7.50
2022-08-14T09:07:30.563Z,6.78
2022-08-14T09:09:59.770Z,7.03
2022-08-14T09:12:32.430Z,5.88
2022-08-14T09:15:08.982Z,9.45
2022-08-14T09:17:43.040Z,6.27
2022-08-14T09:20:12.341Z,7.88
2022-08-14T09:22:48.215Z,7.43
2022-08-14T09:25:16.373Z,8.52
2022-08-14T09:27:42.846Z,5.63
2022-08-14T09:30:31.577Z,6.67
2022-08-14T09:33:07.413Z,8.15
2022-08-14T09:36:10.572Z,9.98
2022-08-14T09:39:01.854Z,10.00
2022-08-14T09:42:21.537Z,5.90
2022-08-14T09:45:08.457Z,7.20
2022-08-14T09:47:45.577Z,5.57
2022-08-14T09:50:33.667Z,8.05
2022-08-14T09:53:06.426Z,7.57
2022-08-14T09:55:45.476Z,5.30
2022-08-14T09:58:19.854Z,6.70
2022-08-14T10:00:53.920Z,9.60
2022-08-14T10:03:34.028Z,5.50
2022-08-14T10:06:09.768Z,5.60
2022-08-14T10:09:03.281Z,8.60
2022-08-14T10:11:35.937Z,8.37
2022-08-14T10:14:21.078Z,5.10
2022-08-14T10:16:57.928Z,5.40
2022-08-14T10:19:29.057Z,9.10
2022-08-14T10:23:14.988Z,12.68
2022-08-14T10:24:54.798Z,8.60
2022-08-14T10:27:26.546Z,15.63
2022-08-14T10:30:00.603Z,11.50
2022-08-14T10:32:36.732Z,7.70
2022-08-14T10:35:13.519Z,10.10
2022-08-14T10:37:50.514Z,6.33
2022-08-14T10:40:37.605Z,5.15
2022-08-14T10:43:23.355Z,9.95
2022-08-14T10:45:59.735Z,5.32
2022-08-14T10:49:02.673Z,7.90
2022-08-14T10:51:33.924Z,10.57
2022-08-14T10:54:35.509Z,10.30
2022-08-14T10:57:12.332Z,8.18
2022-08-14T10:59:43.478Z,5.70
2022-08-14T11:02:45.103Z,5.20
2022-08-14T11:05:18.302Z,6.57
2022-08-14T11:08:09.032Z,5.63
2022-08-14T11:10:47.627Z,7.13
2022-08-14T11:13:21.191Z,7.45
2022-08-14T11:15:51.105Z,6.15
2022-08-14T11:18:20.522Z,7.83
2022-08-14T11:21:00.192Z,5.00
2022-08-14T11:23:38.407Z,5.95
2022-08-14T11:26:07.982Z,5.68
2022-08-14T11:28:47.032Z,9.70
2022-08-14T11:31:18.507Z,5.17
2022-08-14T11:33:48.800Z,6.35
2022-08-14T11:36:17.959Z,4.85
2022-08-14T11:38:46.527Z,5.10
2022-08-14T11:41:14.441Z,4.80
2022-08-14T11:43:57.914Z,5.50
2022-08-14T11:46:30.865Z,4.85
2022-08-14T11:49:06.196Z,5.07
2022-08-14T11:51:50.916Z,4.97
2022-08-14T11:54:35.041Z,7.80
2022-08-14T11:57:02.276Z,4.70
2022-08-14T11:59:33.174Z,6.45
2022-08-14T12:03:00.730Z,5.70
2022-08-14T12:05:00.318Z,5.90
2022-08-14T12:07:27.072Z,8.10
2022-08-14T12:09:57.625Z,6.80
2022-08-14T12:12:35.746Z,4.78
2022-08-14T12:15:12.744Z,7.18
2022-08-14T12:17:50.468Z,10.73
2022-08-14T12:20:30.012Z,5.47
2022-08-14T12:23:00.570Z,6.37
2022-08-14T12:25:27.398Z,5.28
2022-08-14T12:27:59.316Z,4.07
2022-08-14T12:30:43.696Z,4.35
2022-08-14T12:33:31.068Z,6.90
2022-08-14T12:36:05.772Z,7.63
2022-08-14T12:38:38.560Z,4.75
2022-08-14T12:41:11.494Z,4.82
2022-08-14T12:43:51.512Z,6.03
2022-08-14T12:46:35.895Z,4.53
2022-08-14T12:49:09.651Z,4.83
2022-08-14T12:51:37.457Z,4.93
2022-08-14T12:54:27.778Z,3.88
2022-08-14T12:57:17.053Z,3.95
2022-08-14T12:59:45.545Z,4.15
2022-08-14T13:02:26.157Z,8.63
2022-08-14T13:04:57.722Z,5.50
2022-08-14T13:07:27.126Z,5.55
2022-08-14T13:09:59.398Z,4.15
2022-08-14T13:12:33.158Z,4.80
2022-08-14T13:15:09.286Z,5.27
2022-08-14T13:17:42.642Z,6.03
2022-08-14T13:20:24.195Z,4.30
2022-08-14T13:22:52.536Z,6.57
2022-08-14T13:25:27.613Z,4.82
2022-08-14T13:27:57.594Z,9.60
2022-08-14T13:30:26.333Z,5.82
2022-08-14T13:32:54.775Z,4.40
2022-08-14T13:35:25.302Z,5.00
2022-08-14T13:37:53.517Z,6.28
2022-08-14T13:40:26.575Z,5.40
2022-08-14T13:42:53.744Z,5.65
2022-08-14T13:45:22.071Z,5.32
2022-08-14T13:47:50.021Z,4.18
2022-08-14T13:50:21.079Z,6.25
2022-08-14T13:52:56.458Z,6.47
2022-08-14T13:55:25.894Z,4.22
2022-08-14T13:58:05.008Z,7.78
2022-08-14T14:00:35.595Z,4.32
2022-08-14T14:03:05.529Z,4.60
2022-08-14T14:05:52.725Z,4.80
2022-08-14T14:08:42.915Z,13.40
2022-08-14T14:11:09.583Z,5.53
2022-08-14T14:13:37.083Z,5.07
2022-08-14T14:16:09.411Z,3.50
2022-08-14T14:18:42.341Z,4.57
2022-08-14T14:21:09.242Z,4.13
2022-08-14T14:23:36.060Z,5.50
2022-08-14T14:26:03.380Z,5.25
2022-08-14T14:28:32.135Z,4.65
2022-08-14T14:31:05.984Z,4.50
2022-08-14T14:33:47.806Z,4.10
2022-08-14T14:36:20.886Z,3.88
2022-08-14T14:38:52.607Z,4.00
2022-08-14T14:41:22.313Z,3.83
2022-08-14T14:43:51.654Z,4.10
2022-08-14T14:46:19.885Z,9.10
2022-08-14T14:48:53.978Z,5.00
2022-08-14T14:51:21.967Z,4.60
2022-08-14T14:53:48.531Z,5.72
2022-08-14T14:56:49.986Z,4.03
2022-08-14T14:59:01.907Z,6.68
2022-08-14T15:01:28.693Z,5.22
2022-08-14T15:03:55.356Z,6.07
2022-08-14T15:06:30.407Z,3.88
2022-08-14T15:09:01.746Z,5.83
2022-08-14T15:11:32.168Z,4.22
2022-08-14T15:14:00.105Z,3.53
2022-08-14T15:16:27.868Z,4.03
2022-08-14T15:18:54.369Z,4.05
2022-08-14T15:21:20.799Z,4.00
2022-08-14T15:23:48.024Z,4.25
2022-08-14T15:26:24.544Z,4.18
2022-08-14T15:29:02.776Z,3.80
2022-08-14T15:31:31.212Z,3.97
2022-08-14T15:34:43.445Z,4.17
2022-08-14T15:36:59.709Z,3.45
2022-08-14T15:39:29.544Z,7.00
2022-08-14T15:42:03.330Z,3.55
2022-08-14T15:44:34.302Z,3.90
2022-08-14T15:47:06.711Z,4.10
2022-08-14T15:49:34.784Z,4.55
2022-08-14T15:52:03.246Z,4.05
2022-08-14T15:54:31.416Z,3.88
2022-08-14T15:57:00.985Z,3.85
2022-08-14T15:59:48.236Z,4.60
2022-08-14T16:02:16.258Z,3.95
2022-08-14T16:04:45.775Z,4.20
2022-08-14T16:07:17.875Z,9.80
2022-08-14T16:09:48.334Z,6.28
2022-08-14T16:12:19.659Z,5.13
2022-08-14T16:15:06.406Z,7.32
2022-08-14T16:17:44.055Z,5.53
2022-08-14T16:20:11.644Z,6.50
2022-08-14T16:22:59.409Z,7.35
2022-08-14T16:25:34.347Z,4.47
2022-08-14T16:28:03.560Z,7.85
2022-08-14T16:30:34.238Z,5.95
2022-08-14T16:33:04.591Z,9.82
2022-08-14T16:35:43.476Z,6.80
2022-08-14T16:38:45.620Z,6.47
2022-08-14T16:41:29.468Z,8.85
2022-08-14T16:44:04.630Z,8.40
2022-08-14T16:46:40.058Z,8.07
2022-08-14T16:49:13.267Z,7.15
2022-08-14T16:51:41.239Z,8.87
2022-08-14T16:54:20.929Z,6.70
2022-08-14T16:57:13.346Z,7.53
2022-08-14T16:59:52.739Z,7.97
2022-08-14T17:02:39.662Z,6.05
2022-08-14T17:05:20.931Z,8.90
2022-08-14T17:08:28.475Z,5.85
2022-08-14T17:10:52.165Z,7.57
2022-08-14T17:13:47.423Z,6.88
2022-08-14T17:16:25.297Z,5.70
2022-08-14T17:18:55.457Z,6.03
2022-08-14T17:21:38.076Z,7.05
2022-08-14T17:24:56.449Z,5.82
2022-08-14T17:27:04.071Z,6.43
2022-08-14T17:29:34.760Z,6.65
2022-08-14T17:32:21.918Z,5.90
2022-08-14T17:34:55.273Z,7.90
2022-08-14T17:37:35.467Z,7.18
2022-08-14T17:40:19.237Z,7.78
2022-08-14T17:42:46.214Z,7.57
2022-08-14T17:45:28.630Z,9.43
2022-08-14T17:48:09.916Z,5.30
2022-08-14T17:51:01.254Z,5.68
2022-08-14T17:53:30.459Z,5.18
2022-08-14T17:56:01.039Z,4.93
2022-08-14T17:58:30.960Z,5.13
2022-08-14T18:01:12.916Z,6.45
2022-08-14T18:03:44.917Z,8.07
2022-08-14T18:06:39.767Z,8.55
2022-08-14T18:09:25.064Z,5.90
2022-08-14T18:11:55.088Z,6.47
2022-08-14T18:14:32.763Z,6.47
2022-08-14T18:17:10.605Z,5.15
2022-08-14T18:19:41.447Z,7.25
2022-08-14T18:22:24.064Z,5.40
2022-08-14T18:24:56.301Z,4.67
2022-08-14T18:27:28.301Z,7.85
2022-08-14T18:29:57.913Z,5.97
2022-08-14T18:32:27.092Z,6.07
2022-08-14T18:35:03.624Z,4.75
2022-08-14T18:37:39.356Z,6.87
2022-08-14T18:40:18.127Z,4.90
2022-08-14T18:42:51.004Z,5.07
2022-08-14T18:45:42.893Z,9.27
2022-08-14T18:48:28.683Z,5.25
2022-08-14T18:51:12.479Z,4.60
2022-08-14T18:53:57.037Z,5.53
2022-08-14T18:56:56.882Z,5.68
2022-08-14T18:59:35.776Z,4.63
2022-08-14T19:02:30.548Z,5.07
2022-08-14T19:04:59.722Z,4.70
2022-08-14T19:07:33.441Z,5.30
2022-08-14T19:10:07.268Z,5.43
2022-08-14T19:12:52.387Z,5.80
2022-08-14T19:15:29.928Z,6.93
2022-08-14T19:18:10.689Z,5.50
2022-08-14T19:21:00.009Z,4.47
2022-08-14T19:23:43.928Z,5.07
2022-08-14T19:26:35.905Z,8.27
2022-08-14T19:29:25.559Z,4.55
2022-08-14T19:32:00.072Z,8.93
2022-08-14T19:34:52.351Z,6.25
2022-08-14T19:37:52.462Z,4.82
2022-08-14T19:40:33.402Z,4.50
2022-08-14T19:43:00.755Z,4.53
2022-08-14T19:45:27.822Z,7.67
2022-08-14T19:47:54.278Z,5.75
2022-08-14T19:50:38.134Z,6.53
2022-08-14T19:53:12.020Z,4.97
2022-08-14T19:55:54.256Z,4.72
2022-08-14T19:58:28.081Z,4.70
2022-08-14T20:01:01.104Z,4.90
2022-08-14T20:03:58.977Z,4.50
2022-08-14T20:06:35.519Z,9.35
2022-08-14T20:11:04.939Z,4.60
2022-08-14T20:12:02.798Z,5.10
2022-08-14T20:14:36.013Z,4.70
2022-08-14T20:17:06.687Z,5.32
2022-08-14T20:19:37.556Z,5.47
2022-08-14T20:22:37.018Z,4.05
2022-08-14T20:24:55.272Z,5.93
2022-08-14T20:27:33.523Z,4.80
2022-08-14T20:30:33.195Z,4.20
2022-08-14T20:33:02.348Z,4.53
2022-08-14T20:35:35.083Z,4.53
2022-08-14T20:38:29.181Z,4.77
2022-08-14T20:41:05.868Z,4.57
2022-08-14T20:43:55.936Z,5.45
2022-08-14T20:46:29.777Z,3.90
2022-08-14T20:49:01.616Z,4.88
2022-08-14T20:51:43.653Z,4.60
2022-08-14T20:54:34.592Z,4.38
2022-08-14T20:57:06.874Z,4.35
2022-08-14T20:59:39.900Z,4.15
2022-08-14T21:02:34.599Z,4.90
2022-08-14T21:05:16.417Z,5.17
2022-08-14T21:07:50.380Z,9.10
2022-08-14T21:10:35.260Z,6.18
2022-08-14T21:13:13.963Z,4.53
2022-08-14T21:15:56.771Z,5.93
2022-08-14T21:18:24.936Z,4.50
2022-08-14T21:20:56.403Z,4.75
2022-08-14T21:23:23.125Z,4.40
2022-08-14T21:25:49.573Z,4.55
2022-08-14T21:28:27.678Z,5.32
2022-08-14T21:30:57.815Z,4.97
2022-08-14T21:33:25.328Z,4.65
2022-08-14T21:35:57.131Z,5.22
2022-08-14T21:38:34.310Z,4.50
2022-08-14T21:41:42.935Z,4.30
2022-08-14T21:44:18.360Z,4.80
2022-08-14T21:46:54.160Z,4.60
2022-08-14T21:49:34.098Z,4.95
2022-08-14T21:52:50.281Z,4.60
2022-08-14T21:54:59.451Z,5.78
2022-08-14T21:58:45.825Z,4.90
2022-08-14T22:00:34.698Z,5.40
2022-08-14T22:03:04.223Z,5.00
2022-08-14T22:05:30.946Z,6.50
2022-08-14T22:07:57.803Z,5.38
2022-08-14T22:10:24.463Z,5.80
2022-08-14T22:13:00.033Z,4.50
2022-08-14T22:15:28.483Z,5.00
2022-08-14T22:17:55.303Z,4.95
2022-08-14T22:20:25.490Z,4.78
2022-08-14T22:22:56.198Z,5.13
2022-08-14T22:25:23.251Z,5.60
2022-08-14T22:28:01.365Z,4.78
2022-08-14T22:30:27.853Z,5.05
2022-08-14T22:32:57.546Z,4.85
2022-08-14T22:35:24.962Z,5.20
2022-08-14T22:38:35.079Z,5.30
2022-08-14T22:41:02.390Z,4.53
2022-08-14T22:43:31.179Z,5.30
2022-08-14T22:45:58.156Z,5.00
2022-08-14T22:48:29.667Z,5.30
2022-08-14T22:50:56.165Z,4.78
2022-08-14T22:53:23.682Z,5.88
2022-08-14T22:55:52.129Z,5.30
2022-08-14T22:58:31.753Z,5.10
2022-08-14T23:01:02.301Z,5.00
2022-08-14T23:03:34.069Z,5.68
2022-08-14T23:06:01.660Z,4.82
2022-08-14T23:08:58.527Z,5.15
2022-08-14T23:11:15.072Z,5.35
2022-08-14T23:13:43.732Z,6.43
2022-08-14T23:16:19.576Z,5.50
2022-08-14T23:18:46.424Z,6.05
2022-08-14T23:21:15.520Z,4.93
2022-08-14T23:23:43.614Z,5.10
2022-08-14T23:26:46.981Z,5.63
2022-08-14T23:28:58.674Z,5.10
2022-08-14T23:31:34.676Z,5.35
2022-08-14T23:34:07.491Z,5.10
2022-08-14T23:36:38.006Z,5.28
2022-08-14T23:39:19.541Z,5.00
2022-08-14T23:41:52.673Z,5.10
2022-08-14T23:44:22.818Z,5.68
2022-08-14T23:46:52.589Z,5.30
2022-08-14T23:49:22.894Z,5.00
2022-08-14T23:52:49.329Z,5.13
2022-08-14T23:54:48.408Z,5.55
2022-08-14T23:57:19.114Z,6.15
2022-08-14T23:59:54.666Z,5.80
